sensor_id;sensor_type;location;lat;lon;timestamp;temperature;humidity
48019;DHT22;33786;48.690;9.562;2023-02-04T00:01:13;6.30;99.90
48019;DHT22;33786;48.690;9.562;2023-02-04T00:03:39;6.30;99.90
48019;DHT22;33786;48.690;9.562;2023-02-04T00:06:06;6.30;99.90
48019;DHT22;33786;48.690;9.562;2023-02-04T00:08:33;6.30;99.90
48019;DHT22;33786;48.690;9.562;2023-02-04T00:11:00;6.30;99.90
48019;DHT22;33786;48.690;9.562;2023-02-04T00:13:26;6.30;99.90
48019;DHT22;33786;48.690;9.562;2023-02-04T00:15:53;6.30;99.90
48019;DHT22;33786;48.690;9.562;2023-02-04T00:18:19;6.40;99.90
48019;DHT22;33786;48.690;9.562;2023-02-04T00:20:47;6.30;99.90
48019;DHT22;33786;48.690;9.562;2023-02-04T00:23:14;6.40;99.90
48019;DHT22;33786;48.690;9.562;2023-02-04T00:25:41;6.40;99.90
48019;DHT22;33786;48.690;9.562;2023-02-04T00:28:07;6.30;99.90
48019;DHT22;33786;48.690;9.562;2023-02-04T00:30:34;6.30;99.90
48019;DHT22;33786;48.690;9.562;2023-02-04T00:33:01;6.30;99.90
48019;DHT22;33786;48.690;9.562;2023-02-04T00:35:27;6.40;99.90
48019;DHT22;33786;48.690;9.562;2023-02-04T00:37:54;6.30;99.90
48019;DHT22;33786;48.690;9.562;2023-02-04T00:40:21;6.20;99.90
48019;DHT22;33786;48.690;9.562;2023-02-04T00:42:48;6.20;99.90
48019;DHT22;33786;48.690;9.562;2023-02-04T00:45:14;6.30;99.90
48019;DHT22;33786;48.690;9.562;2023-02-04T00:47:41;6.30;99.90
48019;DHT22;33786;48.690;9.562;2023-02-04T00:50:08;6.30;99.90
48019;DHT22;33786;48.690;9.562;2023-02-04T00:52:34;6.20;99.90
48019;DHT22;33786;48.690;9.562;2023-02-04T00:55:01;6.30;99.90
48019;DHT22;33786;48.690;9.562;2023-02-04T00:57:28;6.30;99.90
48019;DHT22;33786;48.690;9.562;2023-02-04T00:59:54;6.40;99.90
48019;DHT22;33786;48.690;9.562;2023-02-04T01:02:21;6.40;99.90
48019;DHT22;33786;48.690;9.562;2023-02-04T01:04:48;6.20;99.90
48019;DHT22;33786;48.690;9.562;2023-02-04T01:07:14;6.30;99.90
48019;DHT22;33786;48.690;9.562;2023-02-04T01:09:41;6.30;99.90
48019;DHT22;33786;48.690;9.562;2023-02-04T01:12:08;6.30;99.90
48019;DHT22;33786;48.690;9.562;2023-02-04T01:14:34;6.30;99.90
48019;DHT22;33786;48.690;9.562;2023-02-04T01:17:01;6.30;99.90
48019;DHT22;33786;48.690;9.562;2023-02-04T01:19:28;6.30;99.90
48019;DHT22;33786;48.690;9.562;2023-02-04T01:21:54;6.30;99.90
48019;DHT22;33786;48.690;9.562;2023-02-04T01:24:21;6.40;99.90
48019;DHT22;33786;48.690;9.562;2023-02-04T01:26:48;6.40;99.90
48019;DHT22;33786;48.690;9.562;2023-02-04T01:29:14;6.50;99.90
48019;DHT22;33786;48.690;9.562;2023-02-04T01:31:41;6.50;99.90
48019;DHT22;33786;48.690;9.562;2023-02-04T01:34:08;6.50;99.90
48019;DHT22;33786;48.690;9.562;2023-02-04T01:36:34;6.50;99.90
48019;DHT22;33786;48.690;9.562;2023-02-04T01:39:01;6.60;99.90
48019;DHT22;33786;48.690;9.562;2023-02-04T01:41:28;6.60;99.90
48019;DHT22;33786;48.690;9.562;2023-02-04T01:43:55;6.70;99.90
48019;DHT22;33786;48.690;9.562;2023-02-04T01:46:22;6.70;99.90
48019;DHT22;33786;48.690;9.562;2023-02-04T01:48:49;6.80;99.90
48019;DHT22;33786;48.690;9.562;2023-02-04T01:51:17;6.90;99.90
48019;DHT22;33786;48.690;9.562;2023-02-04T01:53:47;6.90;99.90
48019;DHT22;33786;48.690;9.562;2023-02-04T01:56:17;6.90;99.90
48019;DHT22;33786;48.690;9.562;2023-02-04T01:58:46;6.80;99.90
48019;DHT22;33786;48.690;9.562;2023-02-04T02:01:13;6.90;99.90
48019;DHT22;33786;48.690;9.562;2023-02-04T02:03:41;6.90;99.90
48019;DHT22;33786;48.690;9.562;2023-02-04T02:06:07;6.90;99.90
48019;DHT22;33786;48.690;9.562;2023-02-04T02:08:35;6.90;99.90
48019;DHT22;33786;48.690;9.562;2023-02-04T02:11:02;6.90;99.90
48019;DHT22;33786;48.690;9.562;2023-02-04T02:13:29;6.90;99.90
48019;DHT22;33786;48.690;9.562;2023-02-04T02:15:56;6.90;99.90
48019;DHT22;33786;48.690;9.562;2023-02-04T02:18:22;6.80;99.90
48019;DHT22;33786;48.690;9.562;2023-02-04T02:20:50;6.90;99.90
48019;DHT22;33786;48.690;9.562;2023-02-04T02:25:50;7.00;99.90
48019;DHT22;33786;48.690;9.562;2023-02-04T02:28:18;7.00;99.90
48019;DHT22;33786;48.690;9.562;2023-02-04T02:30:45;7.00;99.90
48019;DHT22;33786;48.690;9.562;2023-02-04T02:33:13;6.90;99.90
48019;DHT22;33786;48.690;9.562;2023-02-04T02:35:41;7.00;99.90
48019;DHT22;33786;48.690;9.562;2023-02-04T02:38:10;7.10;99.90
48019;DHT22;33786;48.690;9.562;2023-02-04T02:40:37;7.10;99.90
48019;DHT22;33786;48.690;9.562;2023-02-04T02:43:04;7.00;99.90
48019;DHT22;33786;48.690;9.562;2023-02-04T02:45:31;6.90;99.90
48019;DHT22;33786;48.690;9.562;2023-02-04T02:47:59;6.90;99.90
48019;DHT22;33786;48.690;9.562;2023-02-04T02:50:26;6.90;99.90
48019;DHT22;33786;48.690;9.562;2023-02-04T02:52:54;6.90;99.90
48019;DHT22;33786;48.690;9.562;2023-02-04T02:55:25;6.90;99.90
48019;DHT22;33786;48.690;9.562;2023-02-04T02:57:52;6.90;99.90
48019;DHT22;33786;48.690;9.562;2023-02-04T03:02:56;6.90;99.90
48019;DHT22;33786;48.690;9.562;2023-02-04T03:05:25;6.90;99.90
48019;DHT22;33786;48.690;9.562;2023-02-04T03:07:52;6.90;99.90
48019;DHT22;33786;48.690;9.562;2023-02-04T03:10:19;6.90;99.90
48019;DHT22;33786;48.690;9.562;2023-02-04T03:12:46;6.90;99.90
48019;DHT22;33786;48.690;9.562;2023-02-04T03:15:13;6.90;99.90
48019;DHT22;33786;48.690;9.562;2023-02-04T03:17:40;6.80;99.90
48019;DHT22;33786;48.690;9.562;2023-02-04T03:20:07;7.00;99.90
48019;DHT22;33786;48.690;9.562;2023-02-04T03:22:34;6.90;99.90
48019;DHT22;33786;48.690;9.562;2023-02-04T03:25:01;6.90;99.90
48019;DHT22;33786;48.690;9.562;2023-02-04T03:27:28;6.90;99.90
48019;DHT22;33786;48.690;9.562;2023-02-04T03:29:54;6.90;99.90
48019;DHT22;33786;48.690;9.562;2023-02-04T03:32:21;6.80;99.90
48019;DHT22;33786;48.690;9.562;2023-02-04T03:34:48;6.80;99.90
48019;DHT22;33786;48.690;9.562;2023-02-04T03:37:14;6.80;99.90
48019;DHT22;33786;48.690;9.562;2023-02-04T03:39:41;6.80;99.90
48019;DHT22;33786;48.690;9.562;2023-02-04T03:42:08;6.80;99.90
48019;DHT22;33786;48.690;9.562;2023-02-04T03:44:34;6.80;99.90
48019;DHT22;33786;48.690;9.562;2023-02-04T03:47:01;6.80;99.90
48019;DHT22;33786;48.690;9.562;2023-02-04T03:49:28;6.90;99.90
48019;DHT22;33786;48.690;9.562;2023-02-04T03:51:54;6.80;99.90
48019;DHT22;33786;48.690;9.562;2023-02-04T03:54:21;6.80;99.90
48019;DHT22;33786;48.690;9.562;2023-02-04T03:56:48;6.90;99.90
48019;DHT22;33786;48.690;9.562;2023-02-04T03:59:15;6.80;99.90
48019;DHT22;33786;48.690;9.562;2023-02-04T04:01:41;6.70;99.90
48019;DHT22;33786;48.690;9.562;2023-02-04T04:04:08;6.60;99.90
48019;DHT22;33786;48.690;9.562;2023-02-04T04:06:35;6.60;99.90
48019;DHT22;33786;48.690;9.562;2023-02-04T04:09:01;6.70;99.90
48019;DHT22;33786;48.690;9.562;2023-02-04T04:11:28;6.60;99.90
48019;DHT22;33786;48.690;9.562;2023-02-04T04:13:55;6.60;99.90
48019;DHT22;33786;48.690;9.562;2023-02-04T04:16:21;6.50;99.90
48019;DHT22;33786;48.690;9.562;2023-02-04T04:18:48;6.40;99.90
48019;DHT22;33786;48.690;9.562;2023-02-04T04:21:15;6.50;99.90
48019;DHT22;33786;48.690;9.562;2023-02-04T04:23:41;6.50;99.90
48019;DHT22;33786;48.690;9.562;2023-02-04T04:26:08;6.50;99.90
48019;DHT22;33786;48.690;9.562;2023-02-04T04:28:35;6.50;99.90
48019;DHT22;33786;48.690;9.562;2023-02-04T04:31:01;6.50;99.90
48019;DHT22;33786;48.690;9.562;2023-02-04T04:33:28;6.40;99.90
48019;DHT22;33786;48.690;9.562;2023-02-04T04:35:55;6.40;99.90
48019;DHT22;33786;48.690;9.562;2023-02-04T04:38:21;6.30;99.90
48019;DHT22;33786;48.690;9.562;2023-02-04T04:40:48;6.40;99.90
48019;DHT22;33786;48.690;9.562;2023-02-04T04:43:15;6.50;99.90
48019;DHT22;33786;48.690;9.562;2023-02-04T04:45:42;6.40;99.90
48019;DHT22;33786;48.690;9.562;2023-02-04T04:48:08;6.40;99.90
48019;DHT22;33786;48.690;9.562;2023-02-04T04:50:35;6.50;99.90
48019;DHT22;33786;48.690;9.562;2023-02-04T04:53:01;6.40;99.90
48019;DHT22;33786;48.690;9.562;2023-02-04T04:55:28;6.40;99.90
48019;DHT22;33786;48.690;9.562;2023-02-04T04:57:56;6.30;99.90
48019;DHT22;33786;48.690;9.562;2023-02-04T05:00:22;6.30;99.90
48019;DHT22;33786;48.690;9.562;2023-02-04T05:02:49;6.40;99.90
48019;DHT22;33786;48.690;9.562;2023-02-04T05:05:16;6.40;99.90
48019;DHT22;33786;48.690;9.562;2023-02-04T05:07:42;6.40;99.90
48019;DHT22;33786;48.690;9.562;2023-02-04T05:10:09;6.40;99.90
48019;DHT22;33786;48.690;9.562;2023-02-04T05:12:36;6.40;99.90
48019;DHT22;33786;48.690;9.562;2023-02-04T05:15:03;6.40;99.90
48019;DHT22;33786;48.690;9.562;2023-02-04T05:17:30;6.40;99.90
48019;DHT22;33786;48.690;9.562;2023-02-04T05:19:56;6.40;99.90
48019;DHT22;33786;48.690;9.562;2023-02-04T05:22:23;6.50;99.90
48019;DHT22;33786;48.690;9.562;2023-02-04T05:24:50;6.30;99.90
48019;DHT22;33786;48.690;9.562;2023-02-04T05:27:16;6.30;99.90
48019;DHT22;33786;48.690;9.562;2023-02-04T05:29:43;6.40;99.90
48019;DHT22;33786;48.690;9.562;2023-02-04T05:32:09;6.30;99.90
48019;DHT22;33786;48.690;9.562;2023-02-04T05:34:36;6.20;99.90
48019;DHT22;33786;48.690;9.562;2023-02-04T05:37:05;6.10;99.90
48019;DHT22;33786;48.690;9.562;2023-02-04T05:39:31;6.10;99.90
48019;DHT22;33786;48.690;9.562;2023-02-04T05:41:58;6.20;99.90
48019;DHT22;33786;48.690;9.562;2023-02-04T05:44:25;6.20;99.90
48019;DHT22;33786;48.690;9.562;2023-02-04T05:46:53;6.20;99.90
48019;DHT22;33786;48.690;9.562;2023-02-04T05:49:19;6.20;99.90
48019;DHT22;33786;48.690;9.562;2023-02-04T05:51:46;6.30;99.90
48019;DHT22;33786;48.690;9.562;2023-02-04T05:54:13;6.30;99.90
48019;DHT22;33786;48.690;9.562;2023-02-04T05:56:45;6.30;99.90
48019;DHT22;33786;48.690;9.562;2023-02-04T05:59:12;6.20;99.90
48019;DHT22;33786;48.690;9.562;2023-02-04T06:01:39;6.30;99.90
48019;DHT22;33786;48.690;9.562;2023-02-04T06:04:05;6.30;99.90
48019;DHT22;33786;48.690;9.562;2023-02-04T06:06:32;6.20;99.90
48019;DHT22;33786;48.690;9.562;2023-02-04T06:08:59;6.30;99.90
48019;DHT22;33786;48.690;9.562;2023-02-04T06:11:25;6.30;99.90
48019;DHT22;33786;48.690;9.562;2023-02-04T06:13:52;6.30;99.90
48019;DHT22;33786;48.690;9.562;2023-02-04T06:16:19;6.30;99.90
48019;DHT22;33786;48.690;9.562;2023-02-04T06:18:45;6.30;99.90
48019;DHT22;33786;48.690;9.562;2023-02-04T06:21:12;6.30;99.90
48019;DHT22;33786;48.690;9.562;2023-02-04T06:23:39;6.30;99.90
48019;DHT22;33786;48.690;9.562;2023-02-04T06:26:05;6.10;99.90
48019;DHT22;33786;48.690;9.562;2023-02-04T06:28:32;6.20;99.90
48019;DHT22;33786;48.690;9.562;2023-02-04T06:30:59;6.20;99.90
48019;DHT22;33786;48.690;9.562;2023-02-04T06:33:26;6.20;99.90
48019;DHT22;33786;48.690;9.562;2023-02-04T06:35:53;6.30;99.90
48019;DHT22;33786;48.690;9.562;2023-02-04T06:38:19;6.30;99.90
48019;DHT22;33786;48.690;9.562;2023-02-04T06:40:46;6.30;99.90
48019;DHT22;33786;48.690;9.562;2023-02-04T06:43:15;6.30;99.90
48019;DHT22;33786;48.690;9.562;2023-02-04T06:45:42;6.30;99.90
48019;DHT22;33786;48.690;9.562;2023-02-04T06:48:08;6.30;99.90
48019;DHT22;33786;48.690;9.562;2023-02-04T06:50:35;6.20;99.90
48019;DHT22;33786;48.690;9.562;2023-02-04T06:53:02;6.30;99.90
48019;DHT22;33786;48.690;9.562;2023-02-04T06:55:28;6.30;99.90
48019;DHT22;33786;48.690;9.562;2023-02-04T06:57:55;6.40;99.90
48019;DHT22;33786;48.690;9.562;2023-02-04T07:00:22;6.40;99.90
48019;DHT22;33786;48.690;9.562;2023-02-04T07:02:49;6.40;99.90
48019;DHT22;33786;48.690;9.562;2023-02-04T07:05:15;6.40;99.90
48019;DHT22;33786;48.690;9.562;2023-02-04T07:07:42;6.40;99.90
48019;DHT22;33786;48.690;9.562;2023-02-04T07:10:09;6.50;99.90
48019;DHT22;33786;48.690;9.562;2023-02-04T07:12:35;6.50;99.90
48019;DHT22;33786;48.690;9.562;2023-02-04T07:15:02;6.50;99.90
48019;DHT22;33786;48.690;9.562;2023-02-04T07:17:29;6.60;99.90
48019;DHT22;33786;48.690;9.562;2023-02-04T07:19:56;6.60;99.90
48019;DHT22;33786;48.690;9.562;2023-02-04T07:22:22;6.60;99.90
48019;DHT22;33786;48.690;9.562;2023-02-04T07:24:49;6.50;99.90
48019;DHT22;33786;48.690;9.562;2023-02-04T07:27:16;6.50;99.90
48019;DHT22;33786;48.690;9.562;2023-02-04T07:29:42;6.50;99.90
48019;DHT22;33786;48.690;9.562;2023-02-04T07:32:09;6.50;99.90
48019;DHT22;33786;48.690;9.562;2023-02-04T07:34:35;6.50;99.90
48019;DHT22;33786;48.690;9.562;2023-02-04T07:37:02;6.50;99.90
48019;DHT22;33786;48.690;9.562;2023-02-04T07:39:29;6.30;99.90
48019;DHT22;33786;48.690;9.562;2023-02-04T07:41:56;6.30;99.90
48019;DHT22;33786;48.690;9.562;2023-02-04T07:44:22;6.10;99.90
48019;DHT22;33786;48.690;9.562;2023-02-04T07:46:49;6.00;99.90
48019;DHT22;33786;48.690;9.562;2023-02-04T07:49:16;6.00;99.90
48019;DHT22;33786;48.690;9.562;2023-02-04T07:51:43;6.00;99.90
48019;DHT22;33786;48.690;9.562;2023-02-04T07:54:09;6.10;99.90
48019;DHT22;33786;48.690;9.562;2023-02-04T07:56:36;6.00;99.90
48019;DHT22;33786;48.690;9.562;2023-02-04T07:59:06;6.00;99.90
48019;DHT22;33786;48.690;9.562;2023-02-04T08:01:33;6.10;99.90
48019;DHT22;33786;48.690;9.562;2023-02-04T08:04:00;6.20;99.90
48019;DHT22;33786;48.690;9.562;2023-02-04T08:06:27;6.20;99.90
48019;DHT22;33786;48.690;9.562;2023-02-04T08:08:53;6.30;99.90
48019;DHT22;33786;48.690;9.562;2023-02-04T08:11:20;6.40;99.90
48019;DHT22;33786;48.690;9.562;2023-02-04T08:13:46;6.40;99.90
48019;DHT22;33786;48.690;9.562;2023-02-04T08:16:13;6.40;99.90
48019;DHT22;33786;48.690;9.562;2023-02-04T08:18:40;6.30;99.90
48019;DHT22;33786;48.690;9.562;2023-02-04T08:21:07;6.40;99.90
48019;DHT22;33786;48.690;9.562;2023-02-04T08:23:33;6.50;99.90
48019;DHT22;33786;48.690;9.562;2023-02-04T08:26:00;6.60;99.90
48019;DHT22;33786;48.690;9.562;2023-02-04T08:28:27;6.60;99.90
48019;DHT22;33786;48.690;9.562;2023-02-04T08:30:53;6.40;99.90
48019;DHT22;33786;48.690;9.562;2023-02-04T08:33:21;6.70;99.90
48019;DHT22;33786;48.690;9.562;2023-02-04T08:35:48;6.80;99.90
48019;DHT22;33786;48.690;9.562;2023-02-04T08:38:15;7.00;99.90
48019;DHT22;33786;48.690;9.562;2023-02-04T08:40:42;7.00;99.90
48019;DHT22;33786;48.690;9.562;2023-02-04T08:43:09;7.10;99.90
48019;DHT22;33786;48.690;9.562;2023-02-04T08:45:36;7.10;99.90
48019;DHT22;33786;48.690;9.562;2023-02-04T08:48:03;7.20;99.90
48019;DHT22;33786;48.690;9.562;2023-02-04T08:50:30;7.20;99.90
48019;DHT22;33786;48.690;9.562;2023-02-04T08:52:57;7.20;99.90
48019;DHT22;33786;48.690;9.562;2023-02-04T08:55:23;7.40;99.90
48019;DHT22;33786;48.690;9.562;2023-02-04T08:57:50;7.50;99.90
48019;DHT22;33786;48.690;9.562;2023-02-04T09:00:17;7.50;99.90
48019;DHT22;33786;48.690;9.562;2023-02-04T09:02:44;7.60;99.90
48019;DHT22;33786;48.690;9.562;2023-02-04T09:05:11;7.70;99.90
48019;DHT22;33786;48.690;9.562;2023-02-04T09:07:37;7.80;99.90
48019;DHT22;33786;48.690;9.562;2023-02-04T09:10:04;7.90;99.90
48019;DHT22;33786;48.690;9.562;2023-02-04T09:12:31;8.00;99.90
48019;DHT22;33786;48.690;9.562;2023-02-04T09:14:58;8.10;99.90
48019;DHT22;33786;48.690;9.562;2023-02-04T09:17:24;8.30;99.90
48019;DHT22;33786;48.690;9.562;2023-02-04T09:19:51;8.40;99.90
48019;DHT22;33786;48.690;9.562;2023-02-04T09:22:18;8.40;99.90
48019;DHT22;33786;48.690;9.562;2023-02-04T09:24:45;8.40;99.90
48019;DHT22;33786;48.690;9.562;2023-02-04T09:27:11;8.40;99.90
48019;DHT22;33786;48.690;9.562;2023-02-04T09:29:38;8.30;99.90
48019;DHT22;33786;48.690;9.562;2023-02-04T09:32:05;8.00;99.90
48019;DHT22;33786;48.690;9.562;2023-02-04T09:34:32;8.10;99.90
48019;DHT22;33786;48.690;9.562;2023-02-04T09:36:59;8.20;99.90
48019;DHT22;33786;48.690;9.562;2023-02-04T09:39:25;8.30;99.90
48019;DHT22;33786;48.690;9.562;2023-02-04T09:41:52;8.60;99.90
48019;DHT22;33786;48.690;9.562;2023-02-04T09:44:22;8.70;99.90
48019;DHT22;33786;48.690;9.562;2023-02-04T09:46:51;8.70;99.90
48019;DHT22;33786;48.690;9.562;2023-02-04T09:49:18;8.20;99.90
48019;DHT22;33786;48.690;9.562;2023-02-04T09:51:45;8.00;99.90
48019;DHT22;33786;48.690;9.562;2023-02-04T09:54:13;8.10;99.90
48019;DHT22;33786;48.690;9.562;2023-02-04T09:56:41;8.00;99.90
48019;DHT22;33786;48.690;9.562;2023-02-04T09:59:12;7.80;99.90
48019;DHT22;33786;48.690;9.562;2023-02-04T10:01:39;7.70;99.90
48019;DHT22;33786;48.690;9.562;2023-02-04T10:04:07;7.70;99.90
48019;DHT22;33786;48.690;9.562;2023-02-04T10:06:34;7.90;99.90
48019;DHT22;33786;48.690;9.562;2023-02-04T10:09:02;8.00;99.90
48019;DHT22;33786;48.690;9.562;2023-02-04T10:11:30;7.80;99.90
48019;DHT22;33786;48.690;9.562;2023-02-04T10:13:57;7.60;99.90
48019;DHT22;33786;48.690;9.562;2023-02-04T10:16:25;7.70;99.90
48019;DHT22;33786;48.690;9.562;2023-02-04T10:18:56;7.70;99.90
48019;DHT22;33786;48.690;9.562;2023-02-04T10:21:25;7.70;99.90
48019;DHT22;33786;48.690;9.562;2023-02-04T10:23:56;7.40;99.90
48019;DHT22;33786;48.690;9.562;2023-02-04T10:26:25;7.50;99.90
48019;DHT22;33786;48.690;9.562;2023-02-04T10:29:02;7.80;99.90
48019;DHT22;33786;48.690;9.562;2023-02-04T10:31:36;8.20;99.90
48019;DHT22;33786;48.690;9.562;2023-02-04T10:36:33;9.40;99.20
48019;DHT22;33786;48.690;9.562;2023-02-04T10:39:03;10.20;98.10
48019;DHT22;33786;48.690;9.562;2023-02-04T10:41:30;10.50;96.60
48019;DHT22;33786;48.690;9.562;2023-02-04T10:44:02;10.00;96.70
48019;DHT22;33786;48.690;9.562;2023-02-04T10:46:30;10.20;97.50
48019;DHT22;33786;48.690;9.562;2023-02-04T10:48:57;10.40;96.90
48019;DHT22;33786;48.690;9.562;2023-02-04T10:51:24;10.40;96.60
48019;DHT22;33786;48.690;9.562;2023-02-04T10:53:51;10.40;96.80
48019;DHT22;33786;48.690;9.562;2023-02-04T10:56:36;10.60;96.30
48019;DHT22;33786;48.690;9.562;2023-02-04T10:59:03;10.40;96.70
48019;DHT22;33786;48.690;9.562;2023-02-04T11:01:30;10.40;96.10
48019;DHT22;33786;48.690;9.562;2023-02-04T11:03:57;10.30;96.00
48019;DHT22;33786;48.690;9.562;2023-02-04T11:06:24;10.20;97.10
48019;DHT22;33786;48.690;9.562;2023-02-04T11:08:51;10.10;96.80
48019;DHT22;33786;48.690;9.562;2023-02-04T11:11:23;9.50;96.20
48019;DHT22;33786;48.690;9.562;2023-02-04T11:18:45;9.20;97.20
48019;DHT22;33786;48.690;9.562;2023-02-04T11:23:48;9.40;97.50
48019;DHT22;33786;48.690;9.562;2023-02-04T11:26:30;8.90;97.20
48019;DHT22;33786;48.690;9.562;2023-02-04T11:34:02;8.40;99.70
48019;DHT22;33786;48.690;9.562;2023-02-04T11:36:33;8.30;98.50
48019;DHT22;33786;48.690;9.562;2023-02-04T11:39:05;8.20;99.50
48019;DHT22;33786;48.690;9.562;2023-02-04T11:41:32;8.20;98.50
48019;DHT22;33786;48.690;9.562;2023-02-04T11:43:59;8.30;98.50
48019;DHT22;33786;48.690;9.562;2023-02-04T11:46:26;8.50;97.80
48019;DHT22;33786;48.690;9.562;2023-02-04T11:48:54;8.80;96.90
48019;DHT22;33786;48.690;9.562;2023-02-04T11:51:29;8.70;98.10
48019;DHT22;33786;48.690;9.562;2023-02-04T11:53:56;8.90;98.40
48019;DHT22;33786;48.690;9.562;2023-02-04T11:56:23;8.70;97.40
48019;DHT22;33786;48.690;9.562;2023-02-04T11:58:54;8.20;99.00
48019;DHT22;33786;48.690;9.562;2023-02-04T12:01:29;8.10;98.40
48019;DHT22;33786;48.690;9.562;2023-02-04T12:03:57;8.10;98.50
48019;DHT22;33786;48.690;9.562;2023-02-04T12:06:26;7.80;99.00
48019;DHT22;33786;48.690;9.562;2023-02-04T12:09:03;7.90;98.70
48019;DHT22;33786;48.690;9.562;2023-02-04T12:11:30;8.00;99.10
48019;DHT22;33786;48.690;9.562;2023-02-04T12:13:57;7.80;99.90
48019;DHT22;33786;48.690;9.562;2023-02-04T12:16:24;7.80;99.40
48019;DHT22;33786;48.690;9.562;2023-02-04T12:18:51;7.70;99.90
48019;DHT22;33786;48.690;9.562;2023-02-04T12:21:18;7.50;99.90
48019;DHT22;33786;48.690;9.562;2023-02-04T12:23:45;7.50;99.90
48019;DHT22;33786;48.690;9.562;2023-02-04T12:26:12;7.60;99.90
48019;DHT22;33786;48.690;9.562;2023-02-04T12:28:38;7.70;99.80
48019;DHT22;33786;48.690;9.562;2023-02-04T12:31:05;7.60;99.90
48019;DHT22;33786;48.690;9.562;2023-02-04T12:33:32;7.50;99.90
48019;DHT22;33786;48.690;9.562;2023-02-04T12:35:59;7.40;99.90
48019;DHT22;33786;48.690;9.562;2023-02-04T12:38:25;7.40;99.90
48019;DHT22;33786;48.690;9.562;2023-02-04T12:40:53;7.50;99.90
48019;DHT22;33786;48.690;9.562;2023-02-04T12:43:20;7.70;99.90
48019;DHT22;33786;48.690;9.562;2023-02-04T12:45:46;8.00;99.90
48019;DHT22;33786;48.690;9.562;2023-02-04T12:48:15;8.20;99.60
48019;DHT22;33786;48.690;9.562;2023-02-04T12:50:42;8.20;99.90
48019;DHT22;33786;48.690;9.562;2023-02-04T12:53:09;8.30;99.90
48019;DHT22;33786;48.690;9.562;2023-02-04T12:55:36;8.40;99.90
48019;DHT22;33786;48.690;9.562;2023-02-04T12:58:02;8.40;99.90
48019;DHT22;33786;48.690;9.562;2023-02-04T13:00:29;8.40;99.90
48019;DHT22;33786;48.690;9.562;2023-02-04T13:02:56;8.20;99.90
48019;DHT22;33786;48.690;9.562;2023-02-04T13:05:26;8.30;99.90
48019;DHT22;33786;48.690;9.562;2023-02-04T13:07:53;8.20;99.80
48019;DHT22;33786;48.690;9.562;2023-02-04T13:10:19;8.20;99.90
48019;DHT22;33786;48.690;9.562;2023-02-04T13:12:47;8.00;99.90
48019;DHT22;33786;48.690;9.562;2023-02-04T13:15:14;7.70;99.90
48019;DHT22;33786;48.690;9.562;2023-02-04T13:17:41;7.50;99.90
48019;DHT22;33786;48.690;9.562;2023-02-04T13:20:08;7.70;99.90
48019;DHT22;33786;48.690;9.562;2023-02-04T13:22:34;7.70;99.90
48019;DHT22;33786;48.690;9.562;2023-02-04T13:25:01;7.70;99.90
48019;DHT22;33786;48.690;9.562;2023-02-04T13:27:29;7.60;99.90
48019;DHT22;33786;48.690;9.562;2023-02-04T13:29:57;7.70;99.90
48019;DHT22;33786;48.690;9.562;2023-02-04T13:32:24;7.70;99.90
48019;DHT22;33786;48.690;9.562;2023-02-04T13:34:50;7.90;99.90
48019;DHT22;33786;48.690;9.562;2023-02-04T13:37:17;7.90;99.90
48019;DHT22;33786;48.690;9.562;2023-02-04T13:39:44;7.90;99.90
48019;DHT22;33786;48.690;9.562;2023-02-04T13:42:10;7.80;99.90
48019;DHT22;33786;48.690;9.562;2023-02-04T13:44:37;7.80;99.90
48019;DHT22;33786;48.690;9.562;2023-02-04T13:47:04;7.70;99.90
48019;DHT22;33786;48.690;9.562;2023-02-04T13:49:30;7.60;99.90
48019;DHT22;33786;48.690;9.562;2023-02-04T13:51:57;7.50;99.90
48019;DHT22;33786;48.690;9.562;2023-02-04T13:54:24;7.60;99.90
48019;DHT22;33786;48.690;9.562;2023-02-04T13:56:51;7.40;99.90
48019;DHT22;33786;48.690;9.562;2023-02-04T13:59:18;7.40;99.90
48019;DHT22;33786;48.690;9.562;2023-02-04T14:01:46;7.60;99.90
48019;DHT22;33786;48.690;9.562;2023-02-04T14:04:13;7.60;99.90
48019;DHT22;33786;48.690;9.562;2023-02-04T14:06:39;7.80;99.90
48019;DHT22;33786;48.690;9.562;2023-02-04T14:09:09;7.90;99.90
48019;DHT22;33786;48.690;9.562;2023-02-04T14:11:37;7.70;99.90
48019;DHT22;33786;48.690;9.562;2023-02-04T14:14:04;7.70;99.90
48019;DHT22;33786;48.690;9.562;2023-02-04T14:16:31;7.80;99.90
48019;DHT22;33786;48.690;9.562;2023-02-04T14:18:58;7.90;99.90
48019;DHT22;33786;48.690;9.562;2023-02-04T14:21:25;7.90;99.90
48019;DHT22;33786;48.690;9.562;2023-02-04T14:23:52;8.10;99.90
48019;DHT22;33786;48.690;9.562;2023-02-04T14:26:19;7.90;99.90
48019;DHT22;33786;48.690;9.562;2023-02-04T14:28:45;7.90;99.90
48019;DHT22;33786;48.690;9.562;2023-02-04T14:31:12;8.10;99.90
48019;DHT22;33786;48.690;9.562;2023-02-04T14:33:39;8.00;99.90
48019;DHT22;33786;48.690;9.562;2023-02-04T14:36:06;7.90;99.90
48019;DHT22;33786;48.690;9.562;2023-02-04T14:38:32;8.00;99.90
48019;DHT22;33786;48.690;9.562;2023-02-04T14:40:59;8.10;99.90
48019;DHT22;33786;48.690;9.562;2023-02-04T14:43:26;8.30;99.90
48019;DHT22;33786;48.690;9.562;2023-02-04T14:45:53;8.40;99.90
48019;DHT22;33786;48.690;9.562;2023-02-04T14:48:20;8.50;99.90
48019;DHT22;33786;48.690;9.562;2023-02-04T14:50:46;8.50;99.90
48019;DHT22;33786;48.690;9.562;2023-02-04T14:53:13;8.50;99.90
48019;DHT22;33786;48.690;9.562;2023-02-04T14:55:39;8.50;99.90
48019;DHT22;33786;48.690;9.562;2023-02-04T14:58:06;8.40;99.90
48019;DHT22;33786;48.690;9.562;2023-02-04T15:00:33;8.40;99.90
48019;DHT22;33786;48.690;9.562;2023-02-04T15:03:00;8.40;99.90
48019;DHT22;33786;48.690;9.562;2023-02-04T15:05:27;8.40;99.80
48019;DHT22;33786;48.690;9.562;2023-02-04T15:07:54;8.30;99.90
48019;DHT22;33786;48.690;9.562;2023-02-04T15:10:21;8.30;99.60
48019;DHT22;33786;48.690;9.562;2023-02-04T15:12:49;8.10;99.90
48019;DHT22;33786;48.690;9.562;2023-02-04T15:15:20;8.00;99.90
48019;DHT22;33786;48.690;9.562;2023-02-04T15:17:50;7.90;99.90
48019;DHT22;33786;48.690;9.562;2023-02-04T15:20:17;7.30;99.90
48019;DHT22;33786;48.690;9.562;2023-02-04T15:22:43;7.20;99.90
48019;DHT22;33786;48.690;9.562;2023-02-04T15:25:17;7.20;99.90
48019;DHT22;33786;48.690;9.562;2023-02-04T15:27:44;7.20;99.90
48019;DHT22;33786;48.690;9.562;2023-02-04T15:30:10;7.10;99.90
48019;DHT22;33786;48.690;9.562;2023-02-04T15:32:40;7.00;99.90
48019;DHT22;33786;48.690;9.562;2023-02-04T15:35:08;6.80;99.90
48019;DHT22;33786;48.690;9.562;2023-02-04T15:37:35;6.80;99.90
48019;DHT22;33786;48.690;9.562;2023-02-04T15:40:04;6.70;99.90
48019;DHT22;33786;48.690;9.562;2023-02-04T15:42:31;6.60;99.90
48019;DHT22;33786;48.690;9.562;2023-02-04T15:44:58;6.60;99.90
48019;DHT22;33786;48.690;9.562;2023-02-04T15:47:25;6.50;99.90
48019;DHT22;33786;48.690;9.562;2023-02-04T15:49:51;6.40;99.90
48019;DHT22;33786;48.690;9.562;2023-02-04T15:52:18;6.30;99.90
48019;DHT22;33786;48.690;9.562;2023-02-04T15:54:51;6.30;99.90
48019;DHT22;33786;48.690;9.562;2023-02-04T15:57:18;6.20;99.90
48019;DHT22;33786;48.690;9.562;2023-02-04T15:59:44;6.10;99.90
48019;DHT22;33786;48.690;9.562;2023-02-04T16:02:11;6.00;99.90
48019;DHT22;33786;48.690;9.562;2023-02-04T16:04:38;5.90;99.90